Time;durP1;ratioP1;P1;durP2;ratioP2;P2;SDS_P1;SDS_P2;PMS_P1;PMS_P2;Temp;Humidity;BMP_temperature;BMP_pressure;BME280_temperature;BME280_humidity;BME280_pressure;Samples;Min_cycle;Max_cycle;Signal;HPM_P1;HPM_P2
2021/03/21 00:01:07;;;;;;;;;;;7.90;31.20;;;;;;4950869;28;74506;-72
2021/03/21 00:03:33;;;;;;;;;;;7.90;31.30;;;;;;4948774;28;77194;-73
2021/03/21 00:05:58;;;;;;;;;;;7.90;31.40;;;;;;4948883;28;76232;-73
2021/03/21 00:08:25;;;;;;;;;;;7.90;31.50;;;;;;4950441;28;74870;-73
2021/03/21 00:10:53;;;;;;;;;;;7.90;31.30;;;;;;4948713;28;77935;-73
2021/03/21 00:13:19;;;;;;;;;;;7.90;31.40;;;;;;4948720;28;78046;-71
2021/03/21 00:15:45;;;;;;;;;;;7.80;31.50;;;;;;4948428;28;76448;-72
2021/03/21 00:18:11;;;;;;;;;;;7.70;31.70;;;;;;4948390;28;76677;-72
2021/03/21 00:20:37;;;;;;;;;;;7.70;31.60;;;;;;4948510;28;75548;-71
2021/03/21 00:23:03;;;;;;;;;;;7.60;32.10;;;;;;4949804;28;74535;-71
2021/03/21 00:25:30;;;;;;;;;;;7.60;31.90;;;;;;4954652;28;74567;-72
2021/03/21 00:27:57;;;;;;;;;;;7.50;32.10;;;;;;4954998;28;78049;-74
2021/03/21 00:30:24;;;;;;;;;;;7.50;32.20;;;;;;4956695;28;74613;-71
2021/03/21 00:32:50;;;;;;;;;;;7.40;32.30;;;;;;4954725;28;77038;-73
2021/03/21 00:35:16;;;;;;;;;;;7.50;32.20;;;;;;4956834;28;75427;-72
2021/03/21 00:37:42;;;;;;;;;;;7.50;32.30;;;;;;4954725;28;78249;-72
2021/03/21 00:40:11;;;;;;;;;;;7.40;32.50;;;;;;4956310;28;75089;-72
2021/03/21 00:42:37;;;;;;;;;;;7.30;32.50;;;;;;4954769;28;76269;-71
2021/03/21 00:45:03;;;;;;;;;;;7.30;32.60;;;;;;4954582;28;77012;-72
2021/03/21 00:47:29;;;;;;;;;;;7.30;32.60;;;;;;4956474;28;75537;-71
2021/03/21 00:49:54;;;;;;;;;;;7.30;32.60;;;;;;4956610;28;74391;-74
2021/03/21 00:52:20;;;;;;;;;;;7.20;32.70;;;;;;4971194;28;77169;-72
2021/03/21 00:54:45;;;;;;;;;;;7.20;32.90;;;;;;4955755;28;75556;-70
2021/03/21 00:57:11;;;;;;;;;;;7.20;32.90;;;;;;4954118;28;76397;-71
2021/03/21 00:59:37;;;;;;;;;;;7.20;32.90;;;;;;4955797;28;75258;-72
2021/03/21 01:02:03;;;;;;;;;;;7.20;32.90;;;;;;4954318;28;77884;-71
2021/03/21 01:04:29;;;;;;;;;;;7.20;32.90;;;;;;4954979;28;77193;-71
2021/03/21 01:06:56;;;;;;;;;;;7.20;33.00;;;;;;4953253;28;94648;-71
2021/03/21 01:09:24;;;;;;;;;;;7.20;32.90;;;;;;4956315;28;74465;-70
2021/03/21 01:11:49;;;;;;;;;;;7.20;33.00;;;;;;4954137;28;77304;-72
2021/03/21 01:14:15;;;;;;;;;;;7.20;32.90;;;;;;4955639;28;74920;-71
2021/03/21 01:16:41;;;;;;;;;;;7.10;33.00;;;;;;4954327;28;76823;-71
2021/03/21 01:19:11;;;;;;;;;;;7.10;33.20;;;;;;4954085;28;74498;-71
2021/03/21 01:21:43;;;;;;;;;;;7.10;33.20;;;;;;4953968;28;76435;-73
2021/03/21 01:24:09;;;;;;;;;;;7.00;33.30;;;;;;4970174;28;77551;-72
2021/03/21 01:26:34;;;;;;;;;;;7.00;33.30;;;;;;4954336;28;78403;-70
2021/03/21 01:29:00;;;;;;;;;;;7.00;33.40;;;;;;4955705;28;75124;-73
2021/03/21 01:31:26;;;;;;;;;;;7.00;33.40;;;;;;4953822;28;75394;-70
2021/03/21 01:33:52;;;;;;;;;;;7.00;33.60;;;;;;4955618;28;75586;-71
2021/03/21 01:36:22;;;;;;;;;;;7.00;33.60;;;;;;4952889;28;75391;-71
2021/03/21 01:38:49;;;;;;;;;;;6.90;33.60;;;;;;4952112;28;75196;-71
2021/03/21 01:41:17;;;;;;;;;;;6.90;33.80;;;;;;4952158;28;74393;-70
2021/03/21 01:43:43;;;;;;;;;;;6.90;33.80;;;;;;4952073;28;74557;-71
2021/03/21 01:46:13;;;;;;;;;;;6.90;33.90;;;;;;4951987;28;75014;-71
2021/03/21 01:48:47;;;;;;;;;;;6.90;34.00;;;;;;4950227;28;75785;-71
2021/03/21 01:51:17;;;;;;;;;;;6.80;34.00;;;;;;4952175;28;75810;-71
2021/03/21 01:53:45;;;;;;;;;;;6.80;34.00;;;;;;4951832;28;75268;-71
2021/03/21 01:56:11;;;;;;;;;;;6.80;34.20;;;;;;4950053;28;76187;-71
2021/03/21 01:58:37;;;;;;;;;;;6.80;34.30;;;;;;4952018;28;74537;-71
2021/03/21 02:01:13;;;;;;;;;;;6.70;34.60;;;;;;4950660;28;76949;-72
2021/03/21 02:03:38;;;;;;;;;;;6.60;34.20;;;;;;4952338;28;75876;-70
2021/03/21 02:06:23;;;;;;;;;;;6.60;34.40;;;;;;4951854;28;75105;-72
2021/03/21 02:08:54;;;;;;;;;;;6.60;34.40;;;;;;4952078;28;75701;-72
2021/03/21 02:11:27;;;;;;;;;;;6.60;34.50;;;;;;4951671;28;75274;-72
2021/03/21 02:14:06;;;;;;;;;;;6.60;34.60;;;;;;4950278;28;77954;-71
2021/03/21 02:16:35;;;;;;;;;;;6.60;34.60;;;;;;4949825;28;75264;-72
2021/03/21 02:19:33;;;;;;;;;;;6.60;34.60;;;;;;4951926;28;75223;-72
2021/03/21 02:22:01;;;;;;;;;;;6.60;34.70;;;;;;4949831;28;75171;-70
2021/03/21 02:24:26;;;;;;;;;;;6.60;34.60;;;;;;4950247;28;78300;-70
2021/03/21 02:27:10;;;;;;;;;;;6.50;34.80;;;;;;4951765;28;74956;-71
2021/03/21 02:29:36;;;;;;;;;;;6.50;34.80;;;;;;4951519;28;75293;-72
2021/03/21 02:32:07;;;;;;;;;;;6.50;34.90;;;;;;4951730;28;75635;-72
2021/03/21 02:34:41;;;;;;;;;;;6.50;34.90;;;;;;4951491;28;75671;-71
2021/03/21 02:37:08;;;;;;;;;;;6.40;34.90;;;;;;4951423;28;75177;-71
2021/03/21 02:39:39;;;;;;;;;;;6.40;35.10;;;;;;4951540;28;74326;-72
2021/03/21 02:42:11;;;;;;;;;;;6.40;35.10;;;;;;4967857;27;75520;-70
2021/03/21 02:44:42;;;;;;;;;;;6.30;35.40;;;;;;4951705;28;75095;-70
2021/03/21 02:47:18;;;;;;;;;;;6.30;35.20;;;;;;4949400;28;78145;-70
2021/03/21 02:49:45;;;;;;;;;;;6.30;35.30;;;;;;4956506;28;74947;-71
2021/03/21 02:52:21;;;;;;;;;;;6.30;35.30;;;;;;4949512;28;75731;-71
2021/03/21 02:55:01;;;;;;;;;;;6.30;35.40;;;;;;4950719;28;75043;-72
2021/03/21 02:57:33;;;;;;;;;;;6.30;35.40;;;;;;4949184;28;77279;-71
2021/03/21 03:00:01;;;;;;;;;;;6.30;35.60;;;;;;4949813;28;74513;-72
2021/03/21 03:02:30;;;;;;;;;;;6.20;35.60;;;;;;4950919;28;75436;-71
2021/03/21 03:04:58;;;;;;;;;;;6.20;35.70;;;;;;4951173;28;75230;-72
2021/03/21 03:07:44;;;;;;;;;;;6.20;35.70;;;;;;4951040;28;75168;-72
2021/03/21 03:10:24;;;;;;;;;;;6.20;36.00;;;;;;4949899;28;75261;-72
2021/03/21 03:12:52;;;;;;;;;;;6.20;36.00;;;;;;4950966;28;75113;-72
2021/03/21 03:15:19;;;;;;;;;;;6.10;36.00;;;;;;4949355;28;75284;-72
2021/03/21 03:17:57;;;;;;;;;;;6.10;35.90;;;;;;4951116;28;75683;-71
2021/03/21 03:20:29;;;;;;;;;;;6.00;36.10;;;;;;4951137;28;74407;-70
2021/03/21 03:23:03;;;;;;;;;;;6.10;36.30;;;;;;4949606;28;75375;-70
2021/03/21 03:25:49;;;;;;;;;;;6.00;36.30;;;;;;4948967;28;77246;-71
2021/03/21 03:28:30;;;;;;;;;;;6.00;36.30;;;;;;4949107;28;74662;-71
2021/03/21 03:30:56;;;;;;;;;;;6.00;36.50;;;;;;4949261;28;78923;-71
2021/03/21 03:33:22;;;;;;;;;;;6.00;36.60;;;;;;4950648;28;74971;-72
2021/03/21 03:35:48;;;;;;;;;;;5.90;36.50;;;;;;4950962;28;75246;-70
2021/03/21 03:38:14;;;;;;;;;;;5.90;36.60;;;;;;4950711;28;75105;-70
2021/03/21 03:40:44;;;;;;;;;;;5.80;36.70;;;;;;4949718;28;76981;-70
2021/03/21 03:43:10;;;;;;;;;;;5.70;36.80;;;;;;4950334;28;74552;-70
2021/03/21 03:45:41;;;;;;;;;;;5.70;36.90;;;;;;4950958;28;75109;-70
2021/03/21 03:48:26;;;;;;;;;;;5.70;37.10;;;;;;4949004;28;76744;-70
2021/03/21 03:50:57;;;;;;;;;;;5.70;37.20;;;;;;4949055;28;75604;-69
2021/03/21 03:53:35;;;;;;;;;;;5.70;37.30;;;;;;4948926;28;74939;-71
2021/03/21 03:56:10;;;;;;;;;;;5.60;37.60;;;;;;4950407;28;75120;-72
2021/03/21 03:58:44;;;;;;;;;;;5.50;38.40;;;;;;4950132;28;75737;-71
2021/03/21 04:01:11;;;;;;;;;;;5.40;38.40;;;;;;4948852;28;74729;-71
2021/03/21 04:03:54;;;;;;;;;;;5.40;38.10;;;;;;4950392;28;75472;-71
2021/03/21 04:06:29;;;;;;;;;;;5.30;38.40;;;;;;4948576;28;75323;-71
2021/03/21 04:09:01;;;;;;;;;;;5.20;39.90;;;;;;4948729;28;76701;-71
2021/03/21 04:11:32;;;;;;;;;;;5.10;39.60;;;;;;4948413;28;76453;-73
2021/03/21 04:14:03;;;;;;;;;;;5.00;39.20;;;;;;4950093;28;75259;-72
2021/03/21 04:16:36;;;;;;;;;;;5.00;39.30;;;;;;4964442;28;75402;-71
2021/03/21 04:19:05;;;;;;;;;;;5.00;39.80;;;;;;4964913;28;75702;-71
2021/03/21 04:21:34;;;;;;;;;;;4.90;39.40;;;;;;4950010;28;75462;-71
2021/03/21 04:24:08;;;;;;;;;;;4.90;40.20;;;;;;4950050;28;75307;-73
2021/03/21 04:26:38;;;;;;;;;;;4.90;39.70;;;;;;4950007;28;75224;-74
2021/03/21 04:29:07;;;;;;;;;;;4.90;39.70;;;;;;4949871;28;75105;-72
2021/03/21 04:31:34;;;;;;;;;;;4.90;40.10;;;;;;4948415;28;77957;-72
2021/03/21 04:34:01;;;;;;;;;;;4.90;40.60;;;;;;4949628;28;77024;-72
2021/03/21 04:36:29;;;;;;;;;;;4.90;40.00;;;;;;4948187;28;75317;-73
2021/03/21 04:38:56;;;;;;;;;;;4.90;39.80;;;;;;4950164;28;74429;-72
2021/03/21 04:41:30;;;;;;;;;;;4.90;39.90;;;;;;4949756;28;75282;-73
2021/03/21 04:43:58;;;;;;;;;;;4.90;39.90;;;;;;4949771;28;75112;-72
2021/03/21 04:46:29;;;;;;;;;;;4.90;39.80;;;;;;4949619;28;75242;-72
2021/03/21 04:48:55;;;;;;;;;;;4.90;39.80;;;;;;4949568;28;75891;-71
2021/03/21 04:51:23;;;;;;;;;;;4.90;40.00;;;;;;4947805;28;78151;-72
2021/03/21 04:53:55;;;;;;;;;;;4.90;40.00;;;;;;4949685;28;75236;-72
2021/03/21 04:56:30;;;;;;;;;;;4.90;40.00;;;;;;4949286;28;76267;-70
2021/03/21 04:59:03;;;;;;;;;;;4.90;40.00;;;;;;4949524;28;74579;-72
2021/03/21 05:01:34;;;;;;;;;;;4.90;40.10;;;;;;4949719;28;75688;-71
2021/03/21 05:04:17;;;;;;;;;;;4.90;40.10;;;;;;4949177;28;75325;-71
2021/03/21 05:06:48;;;;;;;;;;;4.90;40.30;;;;;;4949555;28;75607;-72
2021/03/21 05:09:21;;;;;;;;;;;4.80;40.70;;;;;;4949019;28;75223;-71
2021/03/21 05:11:50;;;;;;;;;;;4.70;40.60;;;;;;4951766;28;74659;-71
2021/03/21 05:14:20;;;;;;;;;;;4.80;40.60;;;;;;4952325;28;75106;-73
2021/03/21 05:17:06;;;;;;;;;;;4.80;40.50;;;;;;4950675;28;74455;-72
2021/03/21 05:19:50;;;;;;;;;;;4.80;40.50;;;;;;4951717;28;74727;-71
2021/03/21 05:22:21;;;;;;;;;;;4.70;40.90;;;;;;4950799;28;74855;-71
2021/03/21 05:24:56;;;;;;;;;;;4.70;41.50;;;;;;4952244;28;75688;-71
2021/03/21 05:27:29;;;;;;;;;;;4.60;41.10;;;;;;4952158;28;75427;-70
2021/03/21 05:30:07;;;;;;;;;;;4.60;42.10;;;;;;4950739;28;76150;-70
2021/03/21 05:32:32;;;;;;;;;;;4.50;42.80;;;;;;4950348;28;77640;-71
2021/03/21 05:34:59;;;;;;;;;;;4.40;42.30;;;;;;4952389;28;74517;-71
2021/03/21 05:37:36;;;;;;;;;;;4.40;41.80;;;;;;4950231;28;74696;-71
2021/03/21 05:40:05;;;;;;;;;;;4.40;42.40;;;;;;4950408;28;74742;-72
2021/03/21 05:42:33;;;;;;;;;;;4.30;42.60;;;;;;4950515;28;77052;-71
2021/03/21 05:45:08;;;;;;;;;;;4.30;42.00;;;;;;4952315;28;74456;-73
2021/03/21 05:47:44;;;;;;;;;;;4.30;42.40;;;;;;4950551;28;75372;-71
2021/03/21 05:50:12;;;;;;;;;;;4.30;42.00;;;;;;4951913;28;75315;-71
2021/03/21 05:52:44;;;;;;;;;;;4.30;42.00;;;;;;4952281;28;75391;-71
2021/03/21 05:55:09;;;;;;;;;;;4.30;42.10;;;;;;4950184;28;74642;-71
2021/03/21 05:58:13;;;;;;;;;;;4.40;42.10;;;;;;4952049;28;74976;-72
2021/03/21 06:00:39;;;;;;;;;;;4.40;42.00;;;;;;4949222;28;75127;-72
2021/03/21 06:03:05;;;;;;;;;;;4.40;42.00;;;;;;4950074;28;75245;-72
2021/03/21 06:05:33;;;;;;;;;;;4.30;42.00;;;;;;4950679;28;75640;-71
2021/03/21 06:08:05;;;;;;;;;;;4.40;42.30;;;;;;4950098;28;76926;-72
2021/03/21 06:10:30;;;;;;;;;;;4.30;42.60;;;;;;4950503;28;75600;-72
2021/03/21 06:13:15;;;;;;;;;;;4.30;42.40;;;;;;4950448;28;75602;-70
2021/03/21 06:16:00;;;;;;;;;;;4.40;42.60;;;;;;4952097;28;74610;-71
2021/03/21 06:18:37;;;;;;;;;;;4.40;43.20;;;;;;4951719;28;75237;-71
2021/03/21 06:21:15;;;;;;;;;;;4.30;42.90;;;;;;4949966;28;76559;-71
2021/03/21 06:23:45;;;;;;;;;;;4.30;42.70;;;;;;4950773;28;77392;-71
2021/03/21 06:26:15;;;;;;;;;;;4.30;42.70;;;;;;4951645;28;75190;-72
2021/03/21 06:28:56;;;;;;;;;;;4.30;42.60;;;;;;4951583;28;75534;-73
2021/03/21 06:31:40;;;;;;;;;;;4.30;42.70;;;;;;4950134;28;75310;-72
2021/03/21 06:34:20;;;;;;;;;;;4.40;42.80;;;;;;4950045;28;75549;-73
2021/03/21 06:36:52;;;;;;;;;;;4.40;42.60;;;;;;4951547;28;75154;-72
2021/03/21 06:39:17;;;;;;;;;;;4.40;42.60;;;;;;4951936;28;74342;-72
2021/03/21 06:41:55;;;;;;;;;;;4.40;42.90;;;;;;4949673;28;75414;-73
2021/03/21 06:44:50;;;;;;;;;;;4.40;43.00;;;;;;4949820;28;75510;-73
2021/03/21 06:47:15;;;;;;;;;;;4.40;42.90;;;;;;4931998;28;74731;-73
2021/03/21 06:49:53;;;;;;;;;;;4.50;43.00;;;;;;4951624;28;75751;-73
2021/03/21 06:52:31;;;;;;;;;;;4.50;43.00;;;;;;4951131;28;75211;-73
2021/03/21 06:55:00;;;;;;;;;;;4.50;43.00;;;;;;4950939;28;75221;-73
2021/03/21 06:57:25;;;;;;;;;;;4.60;43.00;;;;;;4950131;28;74663;-73
2021/03/21 06:59:51;;;;;;;;;;;4.70;43.00;;;;;;4949720;28;76082;-73
2021/03/21 07:02:16;;;;;;;;;;;4.70;43.30;;;;;;4951396;28;74445;-73
2021/03/21 07:04:42;;;;;;;;;;;4.80;42.90;;;;;;4951215;28;75140;-63
2021/03/21 07:07:10;;;;;;;;;;;4.90;43.20;;;;;;4951122;28;75046;-62
2021/03/21 07:09:39;;;;;;;;;;;4.80;44.10;;;;;;4950808;28;74968;-63
2021/03/21 07:12:10;;;;;;;;;;;4.90;43.40;;;;;;4951122;28;75496;-62
2021/03/21 07:14:36;;;;;;;;;;;4.90;43.20;;;;;;4949826;28;78060;-63
2021/03/21 07:17:20;;;;;;;;;;;4.90;43.40;;;;;;4950969;28;75008;-62
2021/03/21 07:19:54;;;;;;;;;;;5.00;43.30;;;;;;4950804;28;75279;-63
2021/03/21 07:22:23;;;;;;;;;;;5.00;43.00;;;;;;4948950;28;77308;-62
2021/03/21 07:25:07;;;;;;;;;;;5.10;42.70;;;;;;4949101;28;75344;-62
2021/03/21 07:27:35;;;;;;;;;;;5.10;42.50;;;;;;4950293;28;75163;-62
2021/03/21 07:30:21;;;;;;;;;;;5.10;42.80;;;;;;4949237;28;75785;-64
2021/03/21 07:32:53;;;;;;;;;;;5.10;43.20;;;;;;4937892;28;75728;-67
2021/03/21 07:35:22;;;;;;;;;;;5.00;44.20;;;;;;4949172;28;75179;-63
2021/03/21 07:37:54;;;;;;;;;;;4.90;43.60;;;;;;4950408;28;75870;-63
2021/03/21 07:40:23;;;;;;;;;;;4.90;43.10;;;;;;4950826;28;75278;-64
2021/03/21 07:42:48;;;;;;;;;;;5.00;43.30;;;;;;4950699;28;74356;-62
2021/03/21 07:45:28;;;;;;;;;;;5.00;42.90;;;;;;4950963;28;74592;-63
2021/03/21 07:48:12;;;;;;;;;;;5.10;42.70;;;;;;4950356;28;74361;-65
2021/03/21 07:50:40;;;;;;;;;;;5.20;42.90;;;;;;4949149;28;77132;-69
2021/03/21 07:53:25;;;;;;;;;;;5.30;43.20;;;;;;4951340;28;75100;-61
2021/03/21 07:55:55;;;;;;;;;;;5.40;42.60;;;;;;4948965;28;75143;-64
2021/03/21 07:58:29;;;;;;;;;;;5.50;42.80;;;;;;4949331;28;77777;-67
2021/03/21 08:00:56;;;;;;;;;;;5.50;42.20;;;;;;4950641;28;75199;-62
2021/03/21 08:03:24;;;;;;;;;;;5.70;42.00;;;;;;4950488;28;75185;-68
2021/03/21 08:05:51;;;;;;;;;;;5.80;42.40;;;;;;4949472;28;74731;-74
2021/03/21 08:08:20;;;;;;;;;;;5.90;42.00;;;;;;4948869;28;75382;-76
2021/03/21 08:10:51;;;;;;;;;;;5.90;41.50;;;;;;4949335;28;76799;-77
2021/03/21 08:13:23;;;;;;;;;;;6.00;41.50;;;;;;4950744;28;75024;-75
2021/03/21 08:15:49;;;;;;;;;;;6.20;41.20;;;;;;4949257;28;77619;-73
2021/03/21 08:18:17;;;;;;;;;;;6.30;41.20;;;;;;4950370;28;74964;-70
2021/03/21 08:21:08;;;;;;;;;;;6.40;40.70;;;;;;4950286;28;75207;-64
2021/03/21 08:23:39;;;;;;;;;;;6.40;40.60;;;;;;4947038;28;77187;-64
2021/03/21 08:26:07;;;;;;;;;;;6.50;40.80;;;;;;4948859;28;74594;-70
2021/03/21 08:28:36;;;;;;;;;;;6.60;40.10;;;;;;4950284;28;75153;-69
2021/03/21 08:31:09;;;;;;;;;;;6.80;39.90;;;;;;4950206;28;75198;-64
2021/03/21 08:33:39;;;;;;;;;;;6.90;39.80;;;;;;4948767;28;75342;-63
2021/03/21 08:36:12;;;;;;;;;;;6.90;39.30;;;;;;4948851;28;77658;-68
2021/03/21 08:38:38;;;;;;;;;;;7.10;39.00;;;;;;4950087;28;75228;-64
2021/03/21 08:41:05;;;;;;;;;;;7.20;38.90;;;;;;4950212;28;75134;-63
2021/03/21 08:43:33;;;;;;;;;;;7.20;38.50;;;;;;4950399;28;75163;-63
2021/03/21 08:46:02;;;;;;;;;;;7.40;38.90;;;;;;4949779;28;78392;-63
2021/03/21 08:48:33;;;;;;;;;;;7.50;38.60;;;;;;4953157;28;75300;-62
2021/03/21 08:51:19;;;;;;;;;;;7.60;38.20;;;;;;4953490;28;74956;-63
2021/03/21 08:53:57;;;;;;;;;;;7.70;38.30;;;;;;4952620;28;75196;-61
2021/03/21 08:56:28;;;;;;;;;;;7.80;38.00;;;;;;4952919;28;75685;-64
2021/03/21 08:59:10;;;;;;;;;;;8.00;38.10;;;;;;4951421;28;75523;-62
2021/03/21 09:01:36;;;;;;;;;;;8.00;38.10;;;;;;4952787;28;75234;-62
2021/03/21 09:04:12;;;;;;;;;;;8.10;38.00;;;;;;4953260;28;74440;-64
2021/03/21 09:06:42;;;;;;;;;;;8.30;37.80;;;;;;4952963;28;75149;-63
2021/03/21 09:09:22;;;;;;;;;;;8.40;37.60;;;;;;4951041;28;77681;-68
2021/03/21 09:11:49;;;;;;;;;;;8.50;37.30;;;;;;4952489;28;74635;-63
2021/03/21 09:14:21;;;;;;;;;;;8.70;37.10;;;;;;4951235;28;77143;-64
2021/03/21 09:16:56;;;;;;;;;;;8.80;37.10;;;;;;4950844;28;76287;-65
2021/03/21 09:19:24;;;;;;;;;;;9.00;37.00;;;;;;4952726;28;74945;-63
2021/03/21 09:21:50;;;;;;;;;;;9.20;36.50;;;;;;4952864;28;74466;-69
2021/03/21 09:24:27;;;;;;;;;;;9.30;36.30;;;;;;4952582;28;75064;-65
2021/03/21 09:26:53;;;;;;;;;;;9.40;35.70;;;;;;4952494;28;75760;-64
2021/03/21 09:29:18;;;;;;;;;;;9.60;35.80;;;;;;4952999;28;75418;-67
2021/03/21 09:31:46;;;;;;;;;;;9.90;34.90;;;;;;4951027;28;77059;-63
2021/03/21 09:34:11;;;;;;;;;;;10.00;34.70;;;;;;4950852;28;77883;-65
2021/03/21 09:36:46;;;;;;;;;;;10.30;34.30;;;;;;4951909;28;75209;-65
2021/03/21 09:39:18;;;;;;;;;;;10.50;34.20;;;;;;4950970;28;77485;-63
2021/03/21 09:41:46;;;;;;;;;;;10.60;33.10;;;;;;4952299;28;74995;-70
2021/03/21 09:44:44;;;;;;;;;;;10.80;32.20;;;;;;4952031;28;75251;-67
2021/03/21 09:47:24;;;;;;;;;;;10.90;32.00;;;;;;4949854;28;75456;-63
2021/03/21 09:49:56;;;;;;;;;;;11.00;31.10;;;;;;4952015;28;76079;-63
2021/03/21 09:52:27;;;;;;;;;;;11.10;31.00;;;;;;4952289;28;75248;-63
2021/03/21 09:54:52;;;;;;;;;;;11.30;31.30;;;;;;4966690;28;76437;-66
2021/03/21 09:57:28;;;;;;;;;;;11.50;31.70;;;;;;4950746;28;75124;-63
2021/03/21 09:59:55;;;;;;;;;;;11.90;31.50;;;;;;4952290;28;75089;-64
2021/03/21 10:02:53;;;;;;;;;;;12.20;31.70;;;;;;4952022;28;74501;-65
2021/03/21 10:05:18;;;;;;;;;;;12.40;30.60;;;;;;4950354;28;75141;-68
2021/03/21 10:07:48;;;;;;;;;;;12.60;30.90;;;;;;4952010;28;75290;-63
2021/03/21 10:10:18;;;;;;;;;;;12.60;29.80;;;;;;4951984;28;75125;-70
2021/03/21 10:12:44;;;;;;;;;;;12.60;31.00;;;;;;4952464;28;75362;-69
2021/03/21 10:15:17;;;;;;;;;;;12.90;29.70;;;;;;4952074;28;74373;-68
2021/03/21 10:17:43;;;;;;;;;;;13.00;30.60;;;;;;4951684;28;75124;-71
2021/03/21 10:20:12;;;;;;;;;;;13.40;30.40;;;;;;4950167;28;76808;-64
2021/03/21 10:22:38;;;;;;;;;;;13.70;29.80;;;;;;4950490;28;76793;-64
2021/03/21 10:25:09;;;;;;;;;;;14.00;29.80;;;;;;4951690;28;74885;-63
2021/03/21 10:27:35;;;;;;;;;;;14.40;29.60;;;;;;4952048;28;75264;-65
2021/03/21 10:30:16;;;;;;;;;;;14.70;29.30;;;;;;4950231;28;75406;-64
2021/03/21 10:32:43;;;;;;;;;;;15.10;28.50;;;;;;4950637;28;77614;-63
2021/03/21 10:35:14;;;;;;;;;;;15.40;28.20;;;;;;4949957;28;75003;-65
2021/03/21 10:37:39;;;;;;;;;;;15.70;27.80;;;;;;4951318;28;75185;-67
2021/03/21 10:40:10;;;;;;;;;;;15.90;27.20;;;;;;4950034;28;75400;-67
2021/03/21 10:42:37;;;;;;;;;;;16.00;26.70;;;;;;4951213;28;74943;-64
2021/03/21 10:45:07;;;;;;;;;;;16.20;27.50;;;;;;4952100;28;75449;-65
2021/03/21 10:47:35;;;;;;;;;;;16.70;26.80;;;;;;4951659;28;75106;-68
2021/03/21 10:50:02;;;;;;;;;;;17.20;25.70;;;;;;4951659;28;74449;-65
2021/03/21 10:52:34;;;;;;;;;;;17.60;26.30;;;;;;4950034;28;75508;-67
2021/03/21 10:55:16;;;;;;;;;;;18.10;25.20;;;;;;4950678;28;74564;-68
2021/03/21 10:57:45;;;;;;;;;;;18.40;23.40;;;;;;4951595;28;75781;-63
2021/03/21 11:00:10;;;;;;;;;;;18.20;23.40;;;;;;4951189;28;75208;-64
2021/03/21 11:02:36;;;;;;;;;;;18.30;24.70;;;;;;4950174;28;75515;-65
2021/03/21 11:05:07;;;;;;;;;;;18.90;24.40;;;;;;4949728;28;77753;-64
2021/03/21 11:07:32;;;;;;;;;;;19.70;23.80;;;;;;4949706;28;74735;-64
2021/03/21 11:10:06;;;;;;;;;;;20.60;23.40;;;;;;4951416;28;74527;-65
2021/03/21 11:12:34;;;;;;;;;;;21.40;22.40;;;;;;4951120;28;74548;-64
2021/03/21 11:15:16;;;;;;;;;;;21.90;21.80;;;;;;4951225;28;75169;-64
2021/03/21 11:17:42;;;;;;;;;;;22.60;21.30;;;;;;4951145;28;75174;-64
2021/03/21 11:20:23;;;;;;;;;;;23.40;20.80;;;;;;4951608;28;74333;-64
2021/03/21 11:22:49;;;;;;;;;;;24.20;19.70;;;;;;4951416;28;75192;-64
2021/03/21 11:25:15;;;;;;;;;;;24.80;19.90;;;;;;4949840;28;76593;-64
2021/03/21 11:27:47;;;;;;;;;;;25.20;18.70;;;;;;4949576;28;75388;-65
2021/03/21 11:30:20;;;;;;;;;;;25.40;18.60;;;;;;4951306;28;74430;-65
2021/03/21 11:32:46;;;;;;;;;;;26.10;18.80;;;;;;4949445;28;76306;-66
2021/03/21 11:35:14;;;;;;;;;;;27.60;18.10;;;;;;4949271;28;77865;-64
2021/03/21 11:37:41;;;;;;;;;;;29.00;17.20;;;;;;4950919;28;75149;-64
2021/03/21 11:40:25;;;;;;;;;;;30.10;16.50;;;;;;4949317;28;75768;-65
2021/03/21 11:43:06;;;;;;;;;;;30.90;15.80;;;;;;4949148;28;77207;-64
2021/03/21 11:45:36;;;;;;;;;;;31.90;15.60;;;;;;4950628;28;75269;-64
2021/03/21 11:48:08;;;;;;;;;;;32.90;14.00;;;;;;4950720;28;75175;-64
2021/03/21 11:50:34;;;;;;;;;;;33.30;14.70;;;;;;4948873;28;75410;-65
2021/03/21 11:53:01;;;;;;;;;;;33.50;14.50;;;;;;4950681;28;75263;-63
2021/03/21 11:55:30;;;;;;;;;;;34.10;13.40;;;;;;4950402;28;74938;-64
2021/03/21 11:58:02;;;;;;;;;;;33.90;14.10;;;;;;4950802;28;75236;-65
2021/03/21 12:00:36;;;;;;;;;;;34.20;12.70;;;;;;4950949;28;75273;-68
2021/03/21 12:03:19;;;;;;;;;;;33.90;13.70;;;;;;4950445;28;75214;-64
2021/03/21 12:05:57;;;;;;;;;;;34.60;13.60;;;;;;4949015;28;75212;-64
2021/03/21 12:08:25;;;;;;;;;;;35.70;13.20;;;;;;4948853;28;77421;-64
2021/03/21 12:10:52;;;;;;;;;;;35.50;12.80;;;;;;4949037;28;75784;-64
2021/03/21 12:13:29;;;;;;;;;;;35.30;13.20;;;;;;4950499;28;75038;-67
2021/03/21 12:15:56;;;;;;;;;;;36.20;13.40;;;;;;4948885;28;76163;-66
2021/03/21 12:18:26;;;;;;;;;;;37.50;12.80;;;;;;4950199;28;75261;-64
2021/03/21 12:20:55;;;;;;;;;;;37.90;12.50;;;;;;4949005;28;75216;-65
2021/03/21 12:23:21;;;;;;;;;;;36.50;12.70;;;;;;4948454;28;76220;-69
2021/03/21 12:26:01;;;;;;;;;;;34.20;14.00;;;;;;4949867;28;74513;-66
2021/03/21 12:28:27;;;;;;;;;;;32.80;15.00;;;;;;4948655;28;75928;-67
2021/03/21 12:30:54;;;;;;;;;;;33.70;14.50;;;;;;4949701;28;75127;-66
2021/03/21 12:33:25;;;;;;;;;;;35.10;14.30;;;;;;4949764;28;75299;-67
2021/03/21 12:35:52;;;;;;;;;;;36.00;13.60;;;;;;4949937;28;74443;-65
2021/03/21 12:41:30;;;;;;;;;;;34.70;13.20;;;;;;4950444;28;74857;-66
2021/03/21 12:44:08;;;;;;;;;;;35.00;13.80;;;;;;4949322;28;75245;-66
2021/03/21 12:47:00;;;;;;;;;;;34.60;13.40;;;;;;4949616;28;74499;-64
2021/03/21 12:49:30;;;;;;;;;;;32.90;13.80;;;;;;4948899;28;74616;-65
2021/03/21 12:51:57;;;;;;;;;;;30.70;15.80;;;;;;4949712;28;75632;-65
2021/03/21 12:54:23;;;;;;;;;;;29.50;16.40;;;;;;4947710;28;76659;-64
2021/03/21 12:56:48;;;;;;;;;;;27.90;16.80;;;;;;4947268;28;76526;-64
2021/03/21 12:59:14;;;;;;;;;;;27.00;18.00;;;;;;4949830;28;74543;-65
2021/03/21 13:01:46;;;;;;;;;;;27.00;17.60;;;;;;4948104;28;75587;-64
2021/03/21 13:04:12;;;;;;;;;;;27.30;17.80;;;;;;4947797;28;75837;-65
2021/03/21 13:06:39;;;;;;;;;;;27.50;17.80;;;;;;4949415;28;75316;-65
2021/03/21 13:09:05;;;;;;;;;;;29.30;16.50;;;;;;4949976;28;74952;-64
2021/03/21 13:11:30;;;;;;;;;;;31.00;15.80;;;;;;4947379;28;77584;-66
2021/03/21 13:13:56;;;;;;;;;;;30.30;16.20;;;;;;4947620;28;75160;-64
2021/03/21 13:16:22;;;;;;;;;;;29.40;16.10;;;;;;4949343;28;75137;-65
2021/03/21 13:18:48;;;;;;;;;;;29.30;16.00;;;;;;4949184;28;75331;-64
2021/03/21 13:21:13;;;;;;;;;;;30.70;16.30;;;;;;4949662;28;74458;-65
2021/03/21 13:23:39;;;;;;;;;;;32.10;15.40;;;;;;4947140;28;75532;-66
2021/03/21 13:26:05;;;;;;;;;;;32.00;15.40;;;;;;4949326;28;74537;-67
2021/03/21 13:28:31;;;;;;;;;;;31.90;15.30;;;;;;4949064;28;75868;-66
2021/03/21 13:30:58;;;;;;;;;;;32.40;15.50;;;;;;4965259;27;74578;-64
2021/03/21 13:33:28;;;;;;;;;;;32.40;15.00;;;;;;4950691;28;76406;-65
2021/03/21 13:35:55;;;;;;;;;;;32.00;15.00;;;;;;4951997;28;75231;-66
2021/03/21 13:38:22;;;;;;;;;;;30.70;15.40;;;;;;4952245;28;75480;-65
2021/03/21 13:40:48;;;;;;;;;;;31.00;16.20;;;;;;4950450;28;74779;-66
2021/03/21 13:43:14;;;;;;;;;;;32.70;15.10;;;;;;4950707;28;77941;-71
2021/03/21 13:45:40;;;;;;;;;;;33.80;14.90;;;;;;4950397;28;75630;-70
2021/03/21 13:48:07;;;;;;;;;;;33.90;14.10;;;;;;4950436;28;76111;-66
2021/03/21 13:50:33;;;;;;;;;;;33.90;13.90;;;;;;4951902;28;75330;-66
2021/03/21 13:52:58;;;;;;;;;;;34.20;14.30;;;;;;4950181;28;77382;-65
2021/03/21 13:55:26;;;;;;;;;;;34.50;14.00;;;;;;4949903;28;77060;-67
2021/03/21 13:57:52;;;;;;;;;;;34.00;14.30;;;;;;4951462;28;75085;-64
2021/03/21 14:00:19;;;;;;;;;;;33.50;14.50;;;;;;4951734;28;75336;-65
2021/03/21 14:02:45;;;;;;;;;;;32.50;14.60;;;;;;4951540;28;75144;-67
2021/03/21 14:05:11;;;;;;;;;;;33.00;15.20;;;;;;4951974;28;74975;-65
2021/03/21 14:07:37;;;;;;;;;;;34.00;13.80;;;;;;4951805;28;75202;-67
2021/03/21 14:10:04;;;;;;;;;;;33.70;14.40;;;;;;4951556;28;75327;-74
2021/03/21 14:12:29;;;;;;;;;;;34.00;14.50;;;;;;4951130;28;77621;-67
2021/03/21 14:14:55;;;;;;;;;;;35.30;14.20;;;;;;4951159;28;75769;-69
2021/03/21 14:17:20;;;;;;;;;;;35.50;14.00;;;;;;4951620;28;75648;-67
2021/03/21 14:19:46;;;;;;;;;;;36.90;13.60;;;;;;4951541;28;75842;-66
2021/03/21 14:22:12;;;;;;;;;;;38.40;12.70;;;;;;4951071;28;75121;-67
2021/03/21 14:24:37;;;;;;;;;;;38.40;12.70;;;;;;4951170;28;75182;-66
2021/03/21 14:27:03;;;;;;;;;;;37.50;12.80;;;;;;4950918;28;76206;-71
2021/03/21 14:29:29;;;;;;;;;;;35.90;13.50;;;;;;4951350;28;74532;-65
2021/03/21 14:31:55;;;;;;;;;;;35.10;13.60;;;;;;4950729;28;75737;-66
2021/03/21 14:34:22;;;;;;;;;;;34.80;14.40;;;;;;4951695;28;74363;-70
2021/03/21 14:36:48;;;;;;;;;;;36.90;13.70;;;;;;4949272;28;77068;-67
2021/03/21 14:39:13;;;;;;;;;;;39.00;12.80;;;;;;4950707;28;75274;-67
2021/03/21 14:41:39;;;;;;;;;;;40.60;11.50;;;;;;4951083;28;76217;-68
2021/03/21 14:44:05;;;;;;;;;;;41.00;11.90;;;;;;4949940;28;76386;-66
2021/03/21 14:46:30;;;;;;;;;;;40.70;12.10;;;;;;4951183;28;74422;-66
2021/03/21 14:48:56;;;;;;;;;;;40.50;12.00;;;;;;4949609;28;78622;-67